METAR Data
IDs: Format: Raw Decoded Include TAF

Data at: 0224 UTC 25 Feb 2021

LIPX 250150Z 33005KT CAVOK 05/00 Q1032